Urb Costa Brava, Puerto Rico
Current Conditions -  °F | °C
As of 1:50 PM on Friday 19 Dec 2014 (Local Time) from TJBQ Reporting Station
Scattered Clouds Scattered Clouds  
Wind Chill: 82°   Ceiling: Unl
Heat Index: 85°   Visibility: 10mi
Dew Point: 66°   Wind: 16mph
Humidity: 58%   Direction: 90°E
Pressure: 29.97"   Gusts: 22mph
Location:  18.4951°N, 67.0273°W
Report Text: TJBQ 191750Z 09014G19KT 10SM SCT030 28/19 A2997 RMK RWY08 ATIS P
Loading
Personal Weather Stations






























Interactive Weather Map New forecast layout! Learn more

10-Day Weather Forecast

Advertisements
Track Severe Weather on mobile